sensor_id;sensor_type;location;lat;lon;timestamp;P1;durP1;ratioP1;P2;durP2;ratioP2
24743;SDS011;12844;52.110;5.548;2022-09-12T00:00:25;2.40;;;2.20;;
24743;SDS011;12844;52.110;5.548;2022-09-12T00:02:52;2.42;;;2.22;;
24743;SDS011;12844;52.110;5.548;2022-09-12T00:05:18;2.30;;;2.10;;
24743;SDS011;12844;52.110;5.548;2022-09-12T00:07:43;2.00;;;1.80;;
24743;SDS011;12844;52.110;5.548;2022-09-12T00:10:09;2.30;;;2.10;;
24743;SDS011;12844;52.110;5.548;2022-09-12T00:12:34;2.47;;;2.28;;
24743;SDS011;12844;52.110;5.548;2022-09-12T00:15:00;2.00;;;1.88;;
24743;SDS011;12844;52.110;5.548;2022-09-12T00:17:26;1.90;;;1.80;;
24743;SDS011;12844;52.110;5.548;2022-09-12T00:19:51;2.28;;;2.08;;
24743;SDS011;12844;52.110;5.548;2022-09-12T00:22:17;2.00;;;1.90;;
24743;SDS011;12844;52.110;5.548;2022-09-12T00:24:42;2.65;;;2.13;;
24743;SDS011;12844;52.110;5.548;2022-09-12T00:27:08;2.42;;;2.22;;
24743;SDS011;12844;52.110;5.548;2022-09-12T00:29:33;1.80;;;1.70;;
24743;SDS011;12844;52.110;5.548;2022-09-12T00:31:59;2.03;;;1.92;;
24743;SDS011;12844;52.110;5.548;2022-09-12T00:34:25;2.00;;;1.90;;
24743;SDS011;12844;52.110;5.548;2022-09-12T00:36:50;2.60;;;2.17;;
24743;SDS011;12844;52.110;5.548;2022-09-12T00:39:16;2.28;;;2.00;;
24743;SDS011;12844;52.110;5.548;2022-09-12T00:41:42;2.38;;;2.17;;
24743;SDS011;12844;52.110;5.548;2022-09-12T00:49:15;2.15;;;1.95;;
24743;SDS011;12844;52.110;5.548;2022-09-12T00:52:02;2.53;;;2.20;;
24743;SDS011;12844;52.110;5.548;2022-09-12T00:54:33;2.30;;;2.10;;
24743;SDS011;12844;52.110;5.548;2022-09-12T00:57:07;2.53;;;2.33;;
24743;SDS011;12844;52.110;5.548;2022-09-12T00:59:42;3.08;;;2.30;;
24743;SDS011;12844;52.110;5.548;2022-09-12T01:02:12;2.30;;;2.10;;
24743;SDS011;12844;52.110;5.548;2022-09-12T01:04:38;2.42;;;2.20;;
24743;SDS011;12844;52.110;5.548;2022-09-12T01:07:05;2.35;;;2.15;;
24743;SDS011;12844;52.110;5.548;2022-09-12T01:09:32;2.50;;;2.30;;
24743;SDS011;12844;52.110;5.548;2022-09-12T01:11:58;2.40;;;2.20;;
24743;SDS011;12844;52.110;5.548;2022-09-12T01:14:25;2.30;;;2.13;;
24743;SDS011;12844;52.110;5.548;2022-09-12T01:16:51;2.50;;;2.30;;
24743;SDS011;12844;52.110;5.548;2022-09-12T01:19:28;2.30;;;2.10;;
24743;SDS011;12844;52.110;5.548;2022-09-12T01:25:25;2.60;;;2.40;;
24743;SDS011;12844;52.110;5.548;2022-09-12T01:30:42;2.60;;;2.40;;
24743;SDS011;12844;52.110;5.548;2022-09-12T01:35:55;2.30;;;2.10;;
24743;SDS011;12844;52.110;5.548;2022-09-12T01:38:32;2.40;;;2.20;;
24743;SDS011;12844;52.110;5.548;2022-09-12T01:43:51;2.50;;;2.30;;
24743;SDS011;12844;52.110;5.548;2022-09-12T01:54:37;2.30;;;2.10;;
24743;SDS011;12844;52.110;5.548;2022-09-12T01:57:09;2.30;;;2.08;;
24743;SDS011;12844;52.110;5.548;2022-09-12T01:59:42;2.60;;;2.40;;
24743;SDS011;12844;52.110;5.548;2022-09-12T02:05:01;2.90;;;2.60;;
24743;SDS011;12844;52.110;5.548;2022-09-12T02:07:34;2.80;;;2.60;;
24743;SDS011;12844;52.110;5.548;2022-09-12T02:10:12;2.70;;;2.50;;
24743;SDS011;12844;52.110;5.548;2022-09-12T02:12:43;2.65;;;2.45;;
24743;SDS011;12844;52.110;5.548;2022-09-12T02:15:13;2.45;;;2.25;;
24743;SDS011;12844;52.110;5.548;2022-09-12T02:17:43;2.40;;;2.20;;
24743;SDS011;12844;52.110;5.548;2022-09-12T02:20:15;2.60;;;2.40;;
24743;SDS011;12844;52.110;5.548;2022-09-12T02:22:44;2.40;;;2.20;;
24743;SDS011;12844;52.110;5.548;2022-09-12T02:25:12;2.47;;;2.28;;
24743;SDS011;12844;52.110;5.548;2022-09-12T02:27:46;2.58;;;2.38;;
24743;SDS011;12844;52.110;5.548;2022-09-12T02:30:17;2.70;;;2.50;;
24743;SDS011;12844;52.110;5.548;2022-09-12T02:35:26;2.70;;;2.50;;
24743;SDS011;12844;52.110;5.548;2022-09-12T02:38:28;2.42;;;2.22;;
24743;SDS011;12844;52.110;5.548;2022-09-12T02:41:01;2.92;;;2.60;;
24743;SDS011;12844;52.110;5.548;2022-09-12T02:43:27;2.88;;;2.65;;
24743;SDS011;12844;52.110;5.548;2022-09-12T02:45:53;2.78;;;2.58;;
24743;SDS011;12844;52.110;5.548;2022-09-12T02:50:44;2.60;;;2.40;;
24743;SDS011;12844;52.110;5.548;2022-09-12T02:53:10;2.33;;;2.13;;
24743;SDS011;12844;52.110;5.548;2022-09-12T02:55:36;2.60;;;2.40;;
24743;SDS011;12844;52.110;5.548;2022-09-12T02:58:05;2.60;;;2.40;;
24743;SDS011;12844;52.110;5.548;2022-09-12T03:00:35;2.50;;;2.30;;
24743;SDS011;12844;52.110;5.548;2022-09-12T03:03:19;2.42;;;2.22;;
24743;SDS011;12844;52.110;5.548;2022-09-12T03:06:08;2.50;;;2.30;;
24743;SDS011;12844;52.110;5.548;2022-09-12T03:08:59;2.60;;;2.40;;
24743;SDS011;12844;52.110;5.548;2022-09-12T03:17:23;2.60;;;2.40;;
24743;SDS011;12844;52.110;5.548;2022-09-12T03:20:02;2.35;;;2.15;;
24743;SDS011;12844;52.110;5.548;2022-09-12T03:25:31;2.88;;;2.67;;
24743;SDS011;12844;52.110;5.548;2022-09-12T03:28:21;2.20;;;2.10;;
24743;SDS011;12844;52.110;5.548;2022-09-12T03:30:48;2.55;;;2.35;;
24743;SDS011;12844;52.110;5.548;2022-09-12T03:33:22;2.58;;;2.38;;
24743;SDS011;12844;52.110;5.548;2022-09-12T03:35:49;2.50;;;2.30;;
24743;SDS011;12844;52.110;5.548;2022-09-12T03:38:16;2.60;;;2.40;;
24743;SDS011;12844;52.110;5.548;2022-09-12T03:40:42;2.42;;;2.22;;
24743;SDS011;12844;52.110;5.548;2022-09-12T03:43:08;2.70;;;2.50;;
24743;SDS011;12844;52.110;5.548;2022-09-12T03:45:34;2.50;;;2.30;;
24743;SDS011;12844;52.110;5.548;2022-09-12T03:48:00;2.58;;;2.38;;
24743;SDS011;12844;52.110;5.548;2022-09-12T03:50:26;2.63;;;2.42;;
24743;SDS011;12844;52.110;5.548;2022-09-12T03:52:51;2.50;;;2.30;;
24743;SDS011;12844;52.110;5.548;2022-09-12T03:55:17;2.65;;;2.45;;
24743;SDS011;12844;52.110;5.548;2022-09-12T03:57:42;2.35;;;2.15;;
24743;SDS011;12844;52.110;5.548;2022-09-12T04:00:08;2.72;;;2.50;;
24743;SDS011;12844;52.110;5.548;2022-09-12T04:02:34;2.53;;;2.33;;
24743;SDS011;12844;52.110;5.548;2022-09-12T04:05:00;2.55;;;2.35;;
24743;SDS011;12844;52.110;5.548;2022-09-12T04:07:26;2.50;;;2.30;;
24743;SDS011;12844;52.110;5.548;2022-09-12T04:09:51;2.45;;;2.22;;
24743;SDS011;12844;52.110;5.548;2022-09-12T04:12:18;2.45;;;2.25;;
24743;SDS011;12844;52.110;5.548;2022-09-12T04:14:44;2.47;;;2.28;;
24743;SDS011;12844;52.110;5.548;2022-09-12T04:17:09;3.13;;;2.92;;
24743;SDS011;12844;52.110;5.548;2022-09-12T04:19:35;2.65;;;2.45;;
24743;SDS011;12844;52.110;5.548;2022-09-12T04:22:00;2.60;;;2.40;;
24743;SDS011;12844;52.110;5.548;2022-09-12T04:24:26;2.50;;;2.30;;
24743;SDS011;12844;52.110;5.548;2022-09-12T04:26:52;2.83;;;2.58;;
24743;SDS011;12844;52.110;5.548;2022-09-12T04:29:17;2.53;;;2.33;;
24743;SDS011;12844;52.110;5.548;2022-09-12T04:31:43;2.88;;;2.67;;
24743;SDS011;12844;52.110;5.548;2022-09-12T04:34:09;2.95;;;2.70;;
24743;SDS011;12844;52.110;5.548;2022-09-12T04:36:34;2.58;;;2.30;;
24743;SDS011;12844;52.110;5.548;2022-09-12T04:39:01;2.85;;;2.63;;
24743;SDS011;12844;52.110;5.548;2022-09-12T04:41:29;2.47;;;2.28;;
24743;SDS011;12844;52.110;5.548;2022-09-12T04:43:57;2.35;;;2.15;;
24743;SDS011;12844;52.110;5.548;2022-09-12T04:46:28;2.42;;;2.22;;
24743;SDS011;12844;52.110;5.548;2022-09-12T04:48:55;3.13;;;2.55;;
24743;SDS011;12844;52.110;5.548;2022-09-12T04:51:22;2.47;;;2.28;;
24743;SDS011;12844;52.110;5.548;2022-09-12T04:53:52;2.60;;;2.40;;
24743;SDS011;12844;52.110;5.548;2022-09-12T04:56:19;6.00;;;2.45;;
24743;SDS011;12844;52.110;5.548;2022-09-12T04:58:46;2.60;;;2.40;;
24743;SDS011;12844;52.110;5.548;2022-09-12T05:01:13;2.80;;;2.60;;
24743;SDS011;12844;52.110;5.548;2022-09-12T05:03:40;2.60;;;2.40;;
24743;SDS011;12844;52.110;5.548;2022-09-12T05:09:06;2.70;;;2.50;;
24743;SDS011;12844;52.110;5.548;2022-09-12T05:11:33;3.08;;;2.67;;
24743;SDS011;12844;52.110;5.548;2022-09-12T05:14:00;2.70;;;2.50;;
24743;SDS011;12844;52.110;5.548;2022-09-12T05:16:26;2.80;;;2.50;;
24743;SDS011;12844;52.110;5.548;2022-09-12T05:18:54;2.72;;;2.53;;
24743;SDS011;12844;52.110;5.548;2022-09-12T05:21:21;2.92;;;2.63;;
24743;SDS011;12844;52.110;5.548;2022-09-12T05:23:49;2.58;;;2.38;;
24743;SDS011;12844;52.110;5.548;2022-09-12T05:26:19;2.75;;;2.55;;
24743;SDS011;12844;52.110;5.548;2022-09-12T05:28:46;2.83;;;2.63;;
24743;SDS011;12844;52.110;5.548;2022-09-12T05:31:15;2.78;;;2.58;;
24743;SDS011;12844;52.110;5.548;2022-09-12T05:33:46;2.80;;;2.60;;
24743;SDS011;12844;52.110;5.548;2022-09-12T05:36:14;2.83;;;2.50;;
24743;SDS011;12844;52.110;5.548;2022-09-12T05:38:48;3.00;;;2.70;;
24743;SDS011;12844;52.110;5.548;2022-09-12T05:41:15;2.83;;;2.55;;
24743;SDS011;12844;52.110;5.548;2022-09-12T05:43:43;2.90;;;2.60;;
24743;SDS011;12844;52.110;5.548;2022-09-12T05:46:14;3.42;;;2.80;;
24743;SDS011;12844;52.110;5.548;2022-09-12T05:48:42;3.10;;;2.80;;
24743;SDS011;12844;52.110;5.548;2022-09-12T05:51:19;3.00;;;2.75;;
24743;SDS011;12844;52.110;5.548;2022-09-12T05:53:48;2.92;;;2.63;;
24743;SDS011;12844;52.110;5.548;2022-09-12T05:56:17;2.92;;;2.67;;
24743;SDS011;12844;52.110;5.548;2022-09-12T05:58:45;2.92;;;2.63;;
24743;SDS011;12844;52.110;5.548;2022-09-12T06:01:13;3.20;;;2.90;;
24743;SDS011;12844;52.110;5.548;2022-09-12T06:03:44;2.90;;;2.60;;
24743;SDS011;12844;52.110;5.548;2022-09-12T06:06:14;3.10;;;2.80;;
24743;SDS011;12844;52.110;5.548;2022-09-12T06:08:41;3.03;;;2.72;;
24743;SDS011;12844;52.110;5.548;2022-09-12T06:11:10;3.05;;;2.75;;
24743;SDS011;12844;52.110;5.548;2022-09-12T06:13:39;3.40;;;3.10;;
24743;SDS011;12844;52.110;5.548;2022-09-12T06:16:09;3.63;;;2.90;;
24743;SDS011;12844;52.110;5.548;2022-09-12T06:18:37;3.40;;;3.10;;
24743;SDS011;12844;52.110;5.548;2022-09-12T06:23:30;3.30;;;3.00;;
24743;SDS011;12844;52.110;5.548;2022-09-12T06:25:56;3.50;;;3.17;;
24743;SDS011;12844;52.110;5.548;2022-09-12T06:28:22;4.07;;;3.00;;
24743;SDS011;12844;52.110;5.548;2022-09-12T06:30:47;3.53;;;3.22;;
24743;SDS011;12844;52.110;5.548;2022-09-12T06:33:13;3.25;;;2.90;;
24743;SDS011;12844;52.110;5.548;2022-09-12T06:35:39;3.65;;;3.35;;
24743;SDS011;12844;52.110;5.548;2022-09-12T06:38:04;3.28;;;2.97;;
24743;SDS011;12844;52.110;5.548;2022-09-12T06:40:30;3.95;;;3.50;;
24743;SDS011;12844;52.110;5.548;2022-09-12T06:42:56;5.88;;;3.53;;
24743;SDS011;12844;52.110;5.548;2022-09-12T06:45:22;4.10;;;3.42;;
24743;SDS011;12844;52.110;5.548;2022-09-12T06:47:47;3.70;;;3.30;;
24743;SDS011;12844;52.110;5.548;2022-09-12T06:50:13;4.07;;;3.63;;
24743;SDS011;12844;52.110;5.548;2022-09-12T06:52:38;3.92;;;3.58;;
24743;SDS011;12844;52.110;5.548;2022-09-12T06:55:04;4.13;;;3.38;;
24743;SDS011;12844;52.110;5.548;2022-09-12T06:57:30;4.20;;;3.55;;
24743;SDS011;12844;52.110;5.548;2022-09-12T07:00:00;4.00;;;3.60;;
24743;SDS011;12844;52.110;5.548;2022-09-12T07:02:28;4.05;;;3.60;;
24743;SDS011;12844;52.110;5.548;2022-09-12T07:04:53;4.60;;;3.92;;
24743;SDS011;12844;52.110;5.548;2022-09-12T07:07:19;3.95;;;3.55;;
24743;SDS011;12844;52.110;5.548;2022-09-12T07:09:44;4.55;;;3.70;;
24743;SDS011;12844;52.110;5.548;2022-09-12T07:12:10;3.70;;;3.40;;
24743;SDS011;12844;52.110;5.548;2022-09-12T07:14:36;4.28;;;3.88;;
24743;SDS011;12844;52.110;5.548;2022-09-12T07:17:01;4.47;;;3.58;;
24743;SDS011;12844;52.110;5.548;2022-09-12T07:19:27;4.55;;;3.78;;
24743;SDS011;12844;52.110;5.548;2022-09-12T07:21:53;4.93;;;4.15;;
24743;SDS011;12844;52.110;5.548;2022-09-12T07:24:19;6.47;;;5.15;;
24743;SDS011;12844;52.110;5.548;2022-09-12T07:26:44;5.20;;;4.25;;
24743;SDS011;12844;52.110;5.548;2022-09-12T07:29:14;4.38;;;3.92;;
24743;SDS011;12844;52.110;5.548;2022-09-12T07:31:40;4.70;;;4.22;;
24743;SDS011;12844;52.110;5.548;2022-09-12T07:34:06;4.15;;;3.75;;
24743;SDS011;12844;52.110;5.548;2022-09-12T07:36:32;6.40;;;5.15;;
24743;SDS011;12844;52.110;5.548;2022-09-12T07:38:58;4.80;;;4.10;;
24743;SDS011;12844;52.110;5.548;2022-09-12T07:41:26;4.30;;;3.90;;
24743;SDS011;12844;52.110;5.548;2022-09-12T07:43:54;4.72;;;4.22;;
24743;SDS011;12844;52.110;5.548;2022-09-12T07:46:21;4.82;;;4.03;;
24743;SDS011;12844;52.110;5.548;2022-09-12T07:48:51;5.40;;;4.63;;
24743;SDS011;12844;52.110;5.548;2022-09-12T07:51:17;5.07;;;4.43;;
24743;SDS011;12844;52.110;5.548;2022-09-12T07:53:44;4.90;;;4.15;;
24743;SDS011;12844;52.110;5.548;2022-09-12T07:56:10;5.28;;;4.30;;
24743;SDS011;12844;52.110;5.548;2022-09-12T07:58:37;5.28;;;4.75;;
24743;SDS011;12844;52.110;5.548;2022-09-12T08:03:43;5.22;;;4.40;;
24743;SDS011;12844;52.110;5.548;2022-09-12T08:06:18;4.95;;;4.45;;
24743;SDS011;12844;52.110;5.548;2022-09-12T08:08:45;4.80;;;4.30;;
24743;SDS011;12844;52.110;5.548;2022-09-12T08:11:12;4.82;;;4.05;;
24743;SDS011;12844;52.110;5.548;2022-09-12T08:13:40;5.35;;;4.50;;
24743;SDS011;12844;52.110;5.548;2022-09-12T08:16:08;5.05;;;4.28;;
24743;SDS011;12844;52.110;5.548;2022-09-12T08:18:39;5.25;;;4.45;;
24743;SDS011;12844;52.110;5.548;2022-09-12T08:21:07;5.47;;;4.38;;
24743;SDS011;12844;52.110;5.548;2022-09-12T08:23:36;4.70;;;4.20;;
24743;SDS011;12844;52.110;5.548;2022-09-12T08:26:02;4.68;;;4.05;;
24743;SDS011;12844;52.110;5.548;2022-09-12T08:28:29;4.80;;;4.30;;
24743;SDS011;12844;52.110;5.548;2022-09-12T08:31:02;4.85;;;4.18;;
24743;SDS011;12844;52.110;5.548;2022-09-12T08:33:30;4.70;;;4.20;;
24743;SDS011;12844;52.110;5.548;2022-09-12T08:36:08;4.30;;;3.90;;
24743;SDS011;12844;52.110;5.548;2022-09-12T08:38:36;5.65;;;4.40;;
24743;SDS011;12844;52.110;5.548;2022-09-12T08:46:21;5.00;;;4.28;;
24743;SDS011;12844;52.110;5.548;2022-09-12T08:49:06;5.20;;;4.10;;
24743;SDS011;12844;52.110;5.548;2022-09-12T08:51:36;4.55;;;4.10;;
24743;SDS011;12844;52.110;5.548;2022-09-12T08:54:03;4.80;;;4.20;;
24743;SDS011;12844;52.110;5.548;2022-09-12T08:56:36;4.72;;;3.78;;
24743;SDS011;12844;52.110;5.548;2022-09-12T08:59:03;4.40;;;4.00;;
24743;SDS011;12844;52.110;5.548;2022-09-12T09:01:29;4.80;;;4.10;;
24743;SDS011;12844;52.110;5.548;2022-09-12T09:04:02;4.75;;;4.03;;
24743;SDS011;12844;52.110;5.548;2022-09-12T09:09:10;4.53;;;4.07;;
24743;SDS011;12844;52.110;5.548;2022-09-12T09:12:16;4.25;;;3.83;;
24743;SDS011;12844;52.110;5.548;2022-09-12T09:22:41;4.35;;;3.60;;
24743;SDS011;12844;52.110;5.548;2022-09-12T09:25:19;4.65;;;3.75;;
24743;SDS011;12844;52.110;5.548;2022-09-12T09:30:21;4.50;;;3.65;;
24743;SDS011;12844;52.110;5.548;2022-09-12T09:32:51;4.55;;;3.80;;
24743;SDS011;12844;52.110;5.548;2022-09-12T09:43:51;4.10;;;3.42;;
24743;SDS011;12844;52.110;5.548;2022-09-12T09:46:17;3.78;;;3.35;;
24743;SDS011;12844;52.110;5.548;2022-09-12T09:48:44;4.38;;;3.63;;
24743;SDS011;12844;52.110;5.548;2022-09-12T09:51:12;4.13;;;3.67;;
24743;SDS011;12844;52.110;5.548;2022-09-12T09:56:24;4.72;;;3.90;;
24743;SDS011;12844;52.110;5.548;2022-09-12T09:58:52;4.38;;;3.75;;
24743;SDS011;12844;52.110;5.548;2022-09-12T10:01:18;4.35;;;3.63;;
24743;SDS011;12844;52.110;5.548;2022-09-12T10:03:52;3.90;;;3.50;;
24743;SDS011;12844;52.110;5.548;2022-09-12T10:08:47;4.20;;;3.53;;
24743;SDS011;12844;52.110;5.548;2022-09-12T10:16:28;4.68;;;3.70;;
24743;SDS011;12844;52.110;5.548;2022-09-12T10:18:56;3.80;;;3.47;;
24743;SDS011;12844;52.110;5.548;2022-09-12T10:26:49;4.15;;;3.67;;
24743;SDS011;12844;52.110;5.548;2022-09-12T10:29:38;3.85;;;3.45;;
24743;SDS011;12844;52.110;5.548;2022-09-12T10:32:29;4.00;;;3.55;;
24743;SDS011;12844;52.110;5.548;2022-09-12T10:35:07;4.13;;;3.50;;
24743;SDS011;12844;52.110;5.548;2022-09-12T10:37:41;3.30;;;2.97;;
24743;SDS011;12844;52.110;5.548;2022-09-12T10:40:23;3.80;;;3.20;;
24743;SDS011;12844;52.110;5.548;2022-09-12T10:45:28;4.38;;;3.50;;
24743;SDS011;12844;52.110;5.548;2022-09-12T10:47:55;4.07;;;3.67;;
24743;SDS011;12844;52.110;5.548;2022-09-12T10:50:30;4.07;;;3.67;;
24743;SDS011;12844;52.110;5.548;2022-09-12T10:53:12;5.07;;;3.90;;
24743;SDS011;12844;52.110;5.548;2022-09-12T10:55:40;3.60;;;3.20;;
24743;SDS011;12844;52.110;5.548;2022-09-12T10:58:21;3.50;;;3.20;;
24743;SDS011;12844;52.110;5.548;2022-09-12T11:01:19;3.63;;;3.33;;
24743;SDS011;12844;52.110;5.548;2022-09-12T11:06:33;3.70;;;3.30;;
24743;SDS011;12844;52.110;5.548;2022-09-12T11:09:31;3.53;;;3.22;;
24743;SDS011;12844;52.110;5.548;2022-09-12T11:20:22;3.60;;;3.30;;
24743;SDS011;12844;52.110;5.548;2022-09-12T11:25:48;3.40;;;3.05;;
24743;SDS011;12844;52.110;5.548;2022-09-12T11:29:20;3.30;;;3.00;;
24743;SDS011;12844;52.110;5.548;2022-09-12T11:40:05;3.38;;;3.00;;
24743;SDS011;12844;52.110;5.548;2022-09-12T11:42:46;3.63;;;2.90;;
24743;SDS011;12844;52.110;5.548;2022-09-12T11:45:17;3.38;;;3.08;;
24743;SDS011;12844;52.110;5.548;2022-09-12T11:47:48;3.33;;;2.97;;
24743;SDS011;12844;52.110;5.548;2022-09-12T11:50:36;3.17;;;2.88;;
24743;SDS011;12844;52.110;5.548;2022-09-12T11:53:04;3.40;;;3.10;;
24743;SDS011;12844;52.110;5.548;2022-09-12T11:55:45;3.10;;;2.80;;
24743;SDS011;12844;52.110;5.548;2022-09-12T11:58:21;3.40;;;3.10;;
24743;SDS011;12844;52.110;5.548;2022-09-12T12:00:51;3.15;;;2.85;;
24743;SDS011;12844;52.110;5.548;2022-09-12T12:03:26;3.28;;;2.97;;
24743;SDS011;12844;52.110;5.548;2022-09-12T12:06:02;2.78;;;2.58;;
24743;SDS011;12844;52.110;5.548;2022-09-12T12:08:29;2.72;;;2.53;;
24743;SDS011;12844;52.110;5.548;2022-09-12T12:11:02;3.13;;;2.80;;
24743;SDS011;12844;52.110;5.548;2022-09-12T12:16:02;2.83;;;2.63;;
24743;SDS011;12844;52.110;5.548;2022-09-12T12:18:31;3.08;;;2.67;;
24743;SDS011;12844;52.110;5.548;2022-09-12T12:29:11;2.75;;;2.55;;
24743;SDS011;12844;52.110;5.548;2022-09-12T12:47:58;3.03;;;2.72;;
24743;SDS011;12844;52.110;5.548;2022-09-12T12:50:35;3.20;;;2.85;;
24743;SDS011;12844;52.110;5.548;2022-09-12T12:55:35;3.20;;;2.90;;
24743;SDS011;12844;52.110;5.548;2022-09-12T13:03:30;2.70;;;2.50;;
24743;SDS011;12844;52.110;5.548;2022-09-12T13:05:59;2.90;;;2.70;;
24743;SDS011;12844;52.110;5.548;2022-09-12T13:08:30;2.60;;;2.40;;
24743;SDS011;12844;52.110;5.548;2022-09-12T13:14:00;2.97;;;2.67;;
24743;SDS011;12844;52.110;5.548;2022-09-12T13:19:04;3.50;;;2.90;;
24743;SDS011;12844;52.110;5.548;2022-09-12T13:21:36;3.10;;;2.70;;
24743;SDS011;12844;52.110;5.548;2022-09-12T13:24:04;2.70;;;2.50;;
24743;SDS011;12844;52.110;5.548;2022-09-12T13:26:41;3.10;;;2.90;;
24743;SDS011;12844;52.110;5.548;2022-09-12T13:29:13;2.88;;;2.58;;
24743;SDS011;12844;52.110;5.548;2022-09-12T13:31:41;2.97;;;2.78;;
24743;SDS011;12844;52.110;5.548;2022-09-12T13:34:08;3.10;;;2.67;;
24743;SDS011;12844;52.110;5.548;2022-09-12T13:36:42;3.17;;;2.88;;
24743;SDS011;12844;52.110;5.548;2022-09-12T13:41:54;3.20;;;2.90;;
24743;SDS011;12844;52.110;5.548;2022-09-12T13:44:24;3.08;;;2.85;;
24743;SDS011;12844;52.110;5.548;2022-09-12T13:46:52;3.10;;;2.83;;
24743;SDS011;12844;52.110;5.548;2022-09-12T13:49:36;2.80;;;2.60;;
24743;SDS011;12844;52.110;5.548;2022-09-12T13:52:04;2.67;;;2.47;;
24743;SDS011;12844;52.110;5.548;2022-09-12T13:54:33;3.10;;;2.80;;
24743;SDS011;12844;52.110;5.548;2022-09-12T13:57:03;2.70;;;2.50;;
24743;SDS011;12844;52.110;5.548;2022-09-12T13:59:39;2.78;;;2.58;;
24743;SDS011;12844;52.110;5.548;2022-09-12T14:02:19;2.67;;;2.47;;
24743;SDS011;12844;52.110;5.548;2022-09-12T14:04:47;3.00;;;2.80;;
24743;SDS011;12844;52.110;5.548;2022-09-12T14:07:33;2.92;;;2.70;;
24743;SDS011;12844;52.110;5.548;2022-09-12T14:10:04;2.80;;;2.60;;
24743;SDS011;12844;52.110;5.548;2022-09-12T14:12:31;2.40;;;2.20;;
24743;SDS011;12844;52.110;5.548;2022-09-12T14:15:00;3.17;;;2.67;;
24743;SDS011;12844;52.110;5.548;2022-09-12T14:17:27;2.83;;;2.60;;
24743;SDS011;12844;52.110;5.548;2022-09-12T14:19:59;2.97;;;2.78;;
24743;SDS011;12844;52.110;5.548;2022-09-12T14:22:27;2.80;;;2.60;;
24743;SDS011;12844;52.110;5.548;2022-09-12T21:05:28;4.32;;;3.20;;
24743;SDS011;12844;52.110;5.548;2022-09-12T21:07:53;4.78;;;3.05;;
24743;SDS011;12844;52.110;5.548;2022-09-12T21:10:19;5.47;;;3.53;;
24743;SDS011;12844;52.110;5.548;2022-09-12T21:12:44;9.18;;;3.70;;
24743;SDS011;12844;52.110;5.548;2022-09-12T21:15:10;3.35;;;3.05;;
24743;SDS011;12844;52.110;5.548;2022-09-12T21:17:35;4.40;;;3.65;;
24743;SDS011;12844;52.110;5.548;2022-09-12T21:20:01;4.60;;;3.20;;
24743;SDS011;12844;52.110;5.548;2022-09-12T21:22:26;4.68;;;3.85;;
24743;SDS011;12844;52.110;5.548;2022-09-12T21:24:52;5.38;;;3.72;;
24743;SDS011;12844;52.110;5.548;2022-09-12T21:27:17;9.82;;;4.93;;
24743;SDS011;12844;52.110;5.548;2022-09-12T21:29:43;5.68;;;4.60;;
24743;SDS011;12844;52.110;5.548;2022-09-12T21:32:08;5.70;;;4.50;;
24743;SDS011;12844;52.110;5.548;2022-09-12T21:34:34;6.75;;;4.70;;
24743;SDS011;12844;52.110;5.548;2022-09-12T21:36:59;6.95;;;5.25;;
24743;SDS011;12844;52.110;5.548;2022-09-12T21:39:25;7.20;;;6.50;;
24743;SDS011;12844;52.110;5.548;2022-09-12T21:41:50;6.78;;;5.90;;
24743;SDS011;12844;52.110;5.548;2022-09-12T21:44:16;7.13;;;5.13;;
24743;SDS011;12844;52.110;5.548;2022-09-12T21:46:41;7.18;;;5.45;;
24743;SDS011;12844;52.110;5.548;2022-09-12T21:49:07;7.47;;;5.35;;
24743;SDS011;12844;52.110;5.548;2022-09-12T21:51:32;7.30;;;5.22;;
24743;SDS011;12844;52.110;5.548;2022-09-12T21:53:58;6.53;;;5.20;;
24743;SDS011;12844;52.110;5.548;2022-09-12T21:56:23;8.25;;;5.15;;
24743;SDS011;12844;52.110;5.548;2022-09-12T21:58:49;6.47;;;4.60;;
24743;SDS011;12844;52.110;5.548;2022-09-12T22:01:14;8.02;;;5.30;;
24743;SDS011;12844;52.110;5.548;2022-09-12T22:03:40;8.07;;;5.35;;
24743;SDS011;12844;52.110;5.548;2022-09-12T22:06:07;6.53;;;4.88;;
24743;SDS011;12844;52.110;5.548;2022-09-12T22:08:33;8.05;;;4.70;;
24743;SDS011;12844;52.110;5.548;2022-09-12T22:10:59;6.97;;;5.50;;
24743;SDS011;12844;52.110;5.548;2022-09-12T22:13:27;6.60;;;4.80;;
24743;SDS011;12844;52.110;5.548;2022-09-12T22:15:55;7.85;;;5.28;;
24743;SDS011;12844;52.110;5.548;2022-09-12T22:18:21;9.57;;;5.20;;
24743;SDS011;12844;52.110;5.548;2022-09-12T22:20:47;7.05;;;4.80;;
24743;SDS011;12844;52.110;5.548;2022-09-12T22:23:12;6.47;;;4.85;;
24743;SDS011;12844;52.110;5.548;2022-09-12T22:25:56;5.85;;;4.65;;
24743;SDS011;12844;52.110;5.548;2022-09-12T22:28:24;5.82;;;5.10;;
24743;SDS011;12844;52.110;5.548;2022-09-12T22:30:50;8.02;;;4.53;;
24743;SDS011;12844;52.110;5.548;2022-09-12T22:33:16;6.90;;;4.65;;
24743;SDS011;12844;52.110;5.548;2022-09-12T22:35:41;5.93;;;4.05;;
24743;SDS011;12844;52.110;5.548;2022-09-12T22:38:08;7.63;;;4.70;;
24743;SDS011;12844;52.110;5.548;2022-09-12T22:40:33;6.25;;;4.20;;
24743;SDS011;12844;52.110;5.548;2022-09-12T22:42:59;4.90;;;4.28;;
24743;SDS011;12844;52.110;5.548;2022-09-12T22:45:25;7.28;;;4.50;;
24743;SDS011;12844;52.110;5.548;2022-09-12T22:47:51;6.97;;;4.60;;
24743;SDS011;12844;52.110;5.548;2022-09-12T22:50:16;7.88;;;4.50;;
24743;SDS011;12844;52.110;5.548;2022-09-12T22:52:42;5.65;;;4.57;;
24743;SDS011;12844;52.110;5.548;2022-09-12T22:55:08;8.20;;;4.53;;
24743;SDS011;12844;52.110;5.548;2022-09-12T22:57:34;6.35;;;4.43;;
24743;SDS011;12844;52.110;5.548;2022-09-12T23:00:00;7.45;;;4.70;;
24743;SDS011;12844;52.110;5.548;2022-09-12T23:02:26;6.70;;;4.65;;
24743;SDS011;12844;52.110;5.548;2022-09-12T23:04:51;5.53;;;4.40;;
24743;SDS011;12844;52.110;5.548;2022-09-12T23:07:17;7.07;;;4.50;;
24743;SDS011;12844;52.110;5.548;2022-09-12T23:09:42;5.10;;;4.60;;
24743;SDS011;12844;52.110;5.548;2022-09-12T23:12:10;6.72;;;4.78;;
24743;SDS011;12844;52.110;5.548;2022-09-12T23:14:35;6.07;;;4.40;;
24743;SDS011;12844;52.110;5.548;2022-09-12T23:17:01;5.47;;;4.10;;
24743;SDS011;12844;52.110;5.548;2022-09-12T23:19:27;5.38;;;4.10;;
24743;SDS011;12844;52.110;5.548;2022-09-12T23:21:52;5.13;;;4.10;;
24743;SDS011;12844;52.110;5.548;2022-09-12T23:24:18;4.65;;;4.13;;
24743;SDS011;12844;52.110;5.548;2022-09-12T23:26:44;5.55;;;4.18;;
24743;SDS011;12844;52.110;5.548;2022-09-12T23:29:09;6.43;;;4.57;;
24743;SDS011;12844;52.110;5.548;2022-09-12T23:31:35;5.30;;;4.28;;
24743;SDS011;12844;52.110;5.548;2022-09-12T23:34:03;5.03;;;3.90;;
24743;SDS011;12844;52.110;5.548;2022-09-12T23:36:30;5.55;;;4.25;;
24743;SDS011;12844;52.110;5.548;2022-09-12T23:38:56;6.43;;;4.20;;
24743;SDS011;12844;52.110;5.548;2022-09-12T23:41:22;9.63;;;4.53;;
24743;SDS011;12844;52.110;5.548;2022-09-12T23:43:48;5.30;;;3.80;;
24743;SDS011;12844;52.110;5.548;2022-09-12T23:46:14;5.70;;;4.35;;
24743;SDS011;12844;52.110;5.548;2022-09-12T23:48:41;5.57;;;4.07;;
24743;SDS011;12844;52.110;5.548;2022-09-12T23:51:07;4.55;;;3.70;;
24743;SDS011;12844;52.110;5.548;2022-09-12T23:53:33;6.30;;;4.22;;
24743;SDS011;12844;52.110;5.548;2022-09-12T23:55:59;6.65;;;4.22;;
24743;SDS011;12844;52.110;5.548;2022-09-12T23:58:26;6.80;;;3.95;;
